< Typhoon 201112 2011 Season Typhoon 201114 >
Typhoon 201113 (NORU)
General InformationDetailed Track InformationTrack Information on Google MapsAccess Analytics MapList of All Images || NewsDisaster Info.WeblogTrackbackTyphoon FrontTwiphoonTyphoon Now!Typhoon ImaginationResourceGoogle EarthGE AnimationAtom FeedGeoJSON
Detalied Best Track Wind (Time Zone = UTC)
Year Month Day Hour Lat. Long. Wind (kt) Gust (kt) Direc. of Major Storm Axis Radius of Major Storm Axis (nm) Radius of Minor Storm Axis (nm) Direc. of Major Gale Axis Radius of Major Gale Axis (nm) Radius of Minor Gale Axis (nm) Image
2011 9 2 00 21.3 149.8 0 0 - - - - - - Image
2011 9 2 06 20.9 149.0 0 0 - - - - - - Image
2011 9 2 12 20.2 148.3 0 0 - - - - - - Image
2011 9 2 18 19.7 147.8 0 0 - - - - - - Image
2011 9 3 00 19.8 148.2 0 0 - - - - - - Image
2011 9 3 06 20.6 149.3 0 0 - - - - - - Image
2011 9 3 12 22.2 150.3 35 0 - - - SE 180 110 Image
2011 9 3 18 24.7 151.4 40 0 - - - E 200 110 Image
2011 9 4 00 27.5 151.4 40 0 - - - NE 250 130 Image
2011 9 4 06 29.4 150.8 40 0 - - - NE 250 130 Image
2011 9 4 12 30.8 150.1 40 0 - - - NE 270 150 Image
2011 9 4 18 32.2 149.6 40 0 - - - NE 270 150 Image
2011 9 5 00 33.4 149.6 40 0 - - - NE 270 150 Image
2011 9 5 06 35.1 150.0 40 0 - - - NE 300 150 Image
2011 9 5 12 36.5 148.5 40 0 - - - E 300 200 Image
2011 9 5 18 36.8 148.4 40 0 - - - E 300 200 Image
2011 9 6 00 37.9 149.4 40 0 - - - E 300 180 Image
2011 9 6 06 39.4 150.1 40 0 - - - E 300 180 Image
2011 9 6 12 41.4 150.8 0 0 - - - - - - Image
2011 9 6 18 43.8 148.9 0 0 - - - - - - Image
2011 9 7 00 46.2 149.3 0 0 - - - - - - Image
2011 9 7 06 49.6 145.2 0 0 - - - - - - Image
2011 9 7 12 51.5 141.4 0 0 - - - - - - Image
2011 9 7 18 53.1 141.2 0 0 - - - - - - Image
2011 9 8 00 54.8 141.0 0 0 - - - - - - Image
2011 9 8 06 55.9 141.3 0 0 - - - - - - Image
2011 9 8 12 57.0 141.8 0 0 - - - - - - Image
2011 9 8 18 58.2 142.5 0 0 - - - - - - Image
2011 9 9 00 59.2 142.7 0 0 - - - - - - Image
2011 9 9 06 61.5 141.6 0 0 - - - - - - Image
Japan Meteorological Agency Best Track Data | Correction Date : 2011-10-26
< Typhoon 201112 2011 Season Typhoon 201114 >

Help